createdAt,value
2019-06-08T00:01:06.332Z,100819.08
2019-06-08T00:03:58.050Z,100818.12
2019-06-08T00:06:50.019Z,100818.12
2019-06-08T00:09:41.985Z,100820.12
2019-06-08T00:12:33.778Z,100820.92
2019-06-08T00:15:25.802Z,100822.59
2019-06-08T00:18:17.551Z,100814.95
2019-06-08T00:21:09.546Z,100817.85
2019-06-08T00:24:01.613Z,100803.32
2019-06-08T00:26:53.669Z,100790.34
2019-06-08T00:29:45.693Z,100797.02
2019-06-08T00:32:37.365Z,100797.02
2019-06-08T00:35:29.123Z,100798.30
2019-06-08T00:38:21.071Z,100796.91
2019-06-08T00:41:13.099Z,100796.91
2019-06-08T00:44:05.535Z,100787.62
2019-06-08T00:46:57.323Z,100787.62
2019-06-08T00:49:49.380Z,100791.39
2019-06-08T00:52:41.375Z,100799.76
2019-06-08T00:55:33.169Z,100802.89
2019-06-08T00:58:24.897Z,100797.33
2019-06-08T01:01:17.244Z,100794.00
2019-06-08T01:04:11.008Z,100794.00
2019-06-08T01:07:03.252Z,100789.70
2019-06-08T01:09:55.494Z,100793.64
2019-06-08T01:12:47.532Z,100795.95
2019-06-08T01:15:39.731Z,100801.08
2019-06-08T01:18:31.763Z,100820.20
2019-06-08T01:21:25.478Z,100820.20
2019-06-08T01:24:17.485Z,100831.79
2019-06-08T01:27:09.490Z,100824.98
2019-06-08T01:30:01.219Z,100829.52
2019-06-08T01:32:54.322Z,100829.52
2019-06-08T01:35:46.077Z,100826.81
2019-06-08T01:38:37.950Z,100822.87
2019-06-08T01:41:30.098Z,100822.87
2019-06-08T01:44:22.183Z,100824.55
2019-06-08T01:47:15.219Z,100829.31
2019-06-08T01:50:07.020Z,100824.05
2019-06-08T01:53:00.090Z,100824.05
2019-06-08T01:55:51.827Z,100818.73
2019-06-08T01:58:43.662Z,100819.37
2019-06-08T02:01:35.687Z,100816.55
2019-06-08T02:04:28.115Z,100816.55
2019-06-08T02:07:19.940Z,100812.47
2019-06-08T02:10:12.043Z,100813.88
2019-06-08T02:13:04.086Z,100818.30
2019-06-08T02:15:55.933Z,100820.10
2019-06-08T02:18:51.016Z,100818.33
2019-06-08T02:21:41.331Z,100818.33
2019-06-08T02:24:33.460Z,100825.73
2019-06-08T02:27:25.314Z,100816.73
2019-06-08T02:30:17.284Z,100820.44
2019-06-08T02:33:09.118Z,100818.78
2019-06-08T02:36:00.880Z,100810.86
2019-06-08T02:38:52.822Z,100813.80
2019-06-08T02:41:44.860Z,100813.80
2019-06-08T02:44:37.044Z,100817.98
2019-06-08T02:47:30.329Z,100817.98
2019-06-08T02:50:53.812Z,100818.48
2019-06-08T02:53:45.898Z,100813.72
2019-06-08T02:56:39.296Z,100820.76
2019-06-08T02:59:35.498Z,100820.76
2019-06-08T03:02:29.519Z,100817.13
2019-06-08T03:05:21.803Z,100815.75
2019-06-08T03:08:13.778Z,100815.75
2019-06-08T03:11:05.719Z,100821.27
2019-06-08T03:13:57.472Z,100821.27
2019-06-08T03:16:49.639Z,100817.05
2019-06-08T03:19:42.191Z,100813.09
2019-06-08T03:22:34.757Z,100808.66
2019-06-08T03:25:27.979Z,100819.67
2019-06-08T03:28:19.985Z,100820.53
2019-06-08T03:31:12.002Z,100832.98
2019-06-08T03:34:03.934Z,100832.98
2019-06-08T03:36:57.607Z,100825.58
2019-06-08T03:39:49.293Z,100846.35
2019-06-08T03:42:42.016Z,100846.35
2019-06-08T03:45:34.330Z,100835.40
2019-06-08T03:48:26.470Z,100835.40
2019-06-08T03:51:18.465Z,100846.09
2019-06-08T03:54:10.262Z,100844.76
2019-06-08T03:57:02.463Z,100855.08
2019-06-08T03:59:54.467Z,100868.89
2019-06-08T04:02:46.812Z,100868.89
2019-06-08T04:05:40.819Z,100889.29
2019-06-08T04:08:32.530Z,100882.96
2019-06-08T04:11:24.905Z,100882.96
2019-06-08T04:14:17.031Z,100896.30
2019-06-08T04:17:09.409Z,100896.90
2019-06-08T04:20:10.069Z,100896.90
2019-06-08T04:22:55.400Z,100892.00
2019-06-08T04:25:47.681Z,100900.53
2019-06-08T04:28:40.572Z,100900.53
2019-06-08T04:31:32.678Z,100900.41
2019-06-08T04:34:24.697Z,100911.67
2019-06-08T04:37:16.531Z,100897.83
2019-06-08T04:40:09.474Z,100897.83
2019-06-08T04:43:01.640Z,100908.07
2019-06-08T04:45:53.658Z,100908.86
2019-06-08T04:48:47.399Z,100905.55
2019-06-08T04:51:40.611Z,100905.55
2019-06-08T04:54:32.557Z,100920.86
2019-06-08T04:57:24.288Z,100925.87
2019-06-08T05:00:16.403Z,100929.41
2019-06-08T05:03:08.402Z,100929.41
2019-06-08T05:06:00.160Z,100933.42
2019-06-08T05:08:52.079Z,100933.42
2019-06-08T05:11:45.277Z,100940.48
2019-06-08T05:14:37.090Z,100940.95
2019-06-08T05:17:29.023Z,100958.05
2019-06-08T05:20:37.301Z,100952.07
2019-06-08T05:23:14.488Z,100952.07
2019-06-08T05:26:06.162Z,100955.52
2019-06-08T05:28:58.114Z,100944.53
2019-06-08T05:31:50.094Z,100948.38
2019-06-08T05:34:43.367Z,100943.80
2019-06-08T05:37:35.621Z,100943.80
2019-06-08T05:40:27.697Z,100960.90
2019-06-08T05:43:19.626Z,100959.38
2019-06-08T05:46:11.602Z,100959.38
2019-06-08T05:49:03.765Z,100959.72
2019-06-08T05:51:55.846Z,100967.97
2019-06-08T05:54:47.937Z,100983.18
2019-06-08T05:57:40.115Z,100975.34
2019-06-08T06:00:32.399Z,100980.72
2019-06-08T06:03:24.288Z,100980.04
2019-06-08T06:06:16.554Z,100981.34
2019-06-08T06:09:08.570Z,100996.31
2019-06-08T06:12:00.778Z,100994.19
2019-06-08T06:14:52.709Z,100998.98
2019-06-08T06:17:46.718Z,101017.34
2019-06-08T06:20:38.422Z,101017.34
2019-06-08T06:23:30.430Z,101011.45
2019-06-08T06:26:22.321Z,101013.30
2019-06-08T06:29:14.548Z,101028.64
2019-06-08T06:32:06.679Z,101019.08
2019-06-08T06:34:58.770Z,101020.91
2019-06-08T06:37:52.034Z,101035.28
2019-06-08T06:40:44.082Z,101019.00
2019-06-08T06:43:36.189Z,101019.00
2019-06-08T06:46:27.855Z,101036.36
2019-06-08T06:49:19.670Z,101036.36
2019-06-08T06:52:11.709Z,101036.70
2019-06-08T06:55:04.432Z,101043.48
2019-06-08T06:57:56.268Z,101043.48
2019-06-08T07:00:49.445Z,101051.84
2019-06-08T07:03:41.287Z,101057.34
2019-06-08T07:06:33.171Z,101041.14
2019-06-08T07:09:25.527Z,101096.23
2019-06-08T07:12:17.335Z,101096.23
2019-06-08T07:15:09.430Z,101077.08
2019-06-08T07:18:01.383Z,101065.89
2019-06-08T07:20:54.380Z,101076.80
2019-06-08T07:23:46.348Z,101083.42
2019-06-08T07:26:38.254Z,101083.42
2019-06-08T07:29:30.421Z,101092.84
2019-06-08T07:32:22.124Z,101092.84
2019-06-08T07:35:14.070Z,101085.14
2019-06-08T07:38:06.119Z,101112.98
2019-06-08T07:41:00.104Z,101112.78
2019-06-08T07:43:52.340Z,101126.22
2019-06-08T07:46:44.561Z,101116.66
2019-06-08T07:49:36.389Z,101148.27
2019-06-08T07:52:28.272Z,101148.27
2019-06-08T07:55:20.403Z,101147.37
2019-06-08T07:58:13.219Z,101147.37
2019-06-08T08:01:08.230Z,101154.25
2019-06-08T08:03:59.095Z,101154.25
2019-06-08T08:06:52.217Z,101164.33
2019-06-08T08:09:44.643Z,101167.33
2019-06-08T08:12:36.510Z,101167.33
2019-06-08T08:15:28.625Z,101165.12
2019-06-08T08:18:20.505Z,101165.12
2019-06-08T08:21:22.128Z,101172.75
2019-06-08T08:24:07.328Z,101201.80
2019-06-08T08:27:03.205Z,101200.90
2019-06-08T08:29:53.267Z,101194.10
2019-06-08T08:32:47.957Z,101194.10
2019-06-08T08:35:38.892Z,101197.48
2019-06-08T08:38:30.761Z,101206.34
2019-06-08T08:41:22.823Z,101212.33
2019-06-08T08:44:14.890Z,101218.36
2019-06-08T08:47:07.701Z,101218.36
2019-06-08T08:50:01.884Z,101262.84
2019-06-08T08:52:54.255Z,101227.63
2019-06-08T08:55:48.036Z,101233.01
2019-06-08T08:58:40.274Z,101218.98
2019-06-08T09:01:33.199Z,101239.11
2019-06-08T09:04:27.649Z,101239.11
2019-06-08T09:07:18.994Z,101243.83
2019-06-08T09:10:11.344Z,101240.53
2019-06-08T09:13:04.721Z,101255.44
2019-06-08T09:16:00.463Z,101262.60
2019-06-08T09:18:52.219Z,101256.84
2019-06-08T09:21:44.456Z,101264.67
2019-06-08T09:24:38.799Z,101272.38
2019-06-08T09:27:29.819Z,101273.83
2019-06-08T09:30:21.874Z,101282.14
2019-06-08T09:33:13.981Z,101282.14
2019-06-08T09:36:07.964Z,101287.70
2019-06-08T09:39:03.045Z,101286.75
2019-06-08T09:41:55.991Z,101299.87
2019-06-08T09:44:48.367Z,101296.34
2019-06-08T09:47:40.596Z,101301.44
2019-06-08T09:50:32.557Z,101301.44
2019-06-08T09:53:36.411Z,101302.14
2019-06-08T09:56:18.592Z,101310.98
2019-06-08T09:59:14.503Z,101305.16
2019-06-08T10:02:09.080Z,101301.92
2019-06-08T10:05:00.980Z,101301.92
2019-06-08T10:07:52.188Z,101329.66
2019-06-08T10:10:44.233Z,101319.84
2019-06-08T10:13:38.621Z,101329.58
2019-06-08T10:16:31.079Z,101319.38
2019-06-08T10:19:23.560Z,101319.38
2019-06-08T10:22:17.997Z,101333.55
2019-06-08T10:25:11.171Z,101334.86
2019-06-08T10:28:10.159Z,101332.02
2019-06-08T10:30:59.628Z,101325.43
2019-06-08T10:33:50.414Z,101346.98
2019-06-08T10:36:42.239Z,101346.98
2019-06-08T10:39:34.075Z,101340.56
2019-06-08T10:42:26.308Z,101340.56
2019-06-08T10:45:18.665Z,101346.17
2019-06-08T10:48:10.994Z,101347.28
2019-06-08T10:51:05.276Z,101354.19
2019-06-08T10:53:57.922Z,101354.19
2019-06-08T10:56:50.111Z,101340.38
2019-06-08T10:59:41.931Z,101336.94
2019-06-08T11:02:34.373Z,101347.03
2019-06-08T11:05:28.091Z,101334.69
2019-06-08T11:08:20.309Z,101334.69
2019-06-08T11:11:13.441Z,101320.48
2019-06-08T11:14:07.326Z,101342.09
2019-06-08T11:17:00.311Z,101342.09
2019-06-08T11:19:52.342Z,101330.52
2019-06-08T11:22:44.401Z,101371.08
2019-06-08T11:25:37.675Z,101371.08
2019-06-08T11:28:29.703Z,101335.95
2019-06-08T11:31:21.650Z,101352.62
2019-06-08T11:34:13.585Z,101352.62
2019-06-08T11:37:07.843Z,101365.21
2019-06-08T11:39:59.885Z,101348.78
2019-06-08T11:42:52.081Z,101354.55
2019-06-08T11:45:44.175Z,101365.50
2019-06-08T11:48:39.285Z,101365.50
2019-06-08T11:51:29.850Z,101358.87
2019-06-08T11:54:36.153Z,101370.04
2019-06-08T11:57:17.666Z,101352.77
2019-06-08T12:00:23.675Z,101372.58
2019-06-08T12:03:08.829Z,101380.30
2019-06-08T12:06:02.189Z,101379.65
2019-06-08T12:08:54.176Z,101381.28
2019-06-08T12:11:48.038Z,101381.28
2019-06-08T12:14:40.560Z,101394.86
2019-06-08T12:17:32.841Z,101385.38
2019-06-08T12:20:24.574Z,101386.73
2019-06-08T12:23:16.347Z,101400.34
2019-06-08T12:26:08.454Z,101401.28
2019-06-08T12:29:01.311Z,101411.75
2019-06-08T12:31:53.459Z,101416.34
2019-06-08T12:34:46.791Z,101416.34
2019-06-08T12:37:38.851Z,101430.72
2019-06-08T12:40:31.276Z,101459.86
2019-06-08T12:43:23.317Z,101437.33
2019-06-08T12:46:16.934Z,101461.78
2019-06-08T12:49:11.360Z,101444.02
2019-06-08T12:52:03.932Z,101442.31
2019-06-08T12:55:05.549Z,101457.13
2019-06-08T12:57:51.742Z,101446.13
2019-06-08T13:00:43.617Z,101446.13
2019-06-08T13:03:37.688Z,101452.61
2019-06-08T13:06:28.932Z,101456.74
2019-06-08T13:09:21.046Z,101478.09
2019-06-08T13:12:15.051Z,101478.09
2019-06-08T13:15:08.472Z,101481.63
2019-06-08T13:18:01.482Z,101478.02
2019-06-08T13:20:53.652Z,101478.02
2019-06-08T13:23:47.985Z,101492.66
2019-06-08T13:26:39.456Z,101489.53
2019-06-08T13:29:31.352Z,101493.34
2019-06-08T13:32:23.256Z,101493.34
2019-06-08T13:35:15.070Z,101487.87
2019-06-08T13:38:08.742Z,101478.73
2019-06-08T13:41:00.648Z,101478.73
2019-06-08T13:43:52.479Z,101509.97
2019-06-08T13:46:44.605Z,101489.55
2019-06-08T13:49:37.679Z,101480.70
2019-06-08T13:52:30.010Z,101493.59
2019-06-08T13:55:47.392Z,101492.96
2019-06-08T13:58:20.803Z,101492.96
2019-06-08T14:01:10.562Z,101506.25
2019-06-08T14:04:02.710Z,101491.44
2019-06-08T14:06:54.437Z,101507.38
2019-06-08T14:09:47.922Z,101488.67
2019-06-08T14:12:40.139Z,101498.28
2019-06-08T14:15:32.131Z,101498.28
2019-06-08T14:18:28.069Z,101493.94
2019-06-08T14:21:28.069Z,101507.71
2019-06-08T14:24:13.015Z,101514.19
2019-06-08T14:27:04.836Z,101512.41
2019-06-08T14:29:58.352Z,101534.64
2019-06-08T14:32:50.249Z,101559.43
2019-06-08T14:35:42.457Z,101549.25
2019-06-08T14:38:38.558Z,101549.25
2019-06-08T14:41:31.140Z,101534.79
2019-06-08T14:44:22.945Z,101532.52
2019-06-08T14:47:15.836Z,101532.52
2019-06-08T14:50:08.081Z,101512.69
2019-06-08T14:52:59.933Z,101522.14
2019-06-08T14:56:04.881Z,101513.87
2019-06-08T14:58:48.183Z,101513.87
2019-06-08T15:01:39.705Z,101505.58
2019-06-08T15:04:36.526Z,101509.84
2019-06-08T15:07:27.343Z,101500.02
2019-06-08T15:10:21.470Z,101500.02
2019-06-08T15:13:13.247Z,101500.30
2019-06-08T15:16:07.411Z,101501.61
2019-06-08T15:19:00.346Z,101498.59
2019-06-08T15:21:52.712Z,101498.59
2019-06-08T15:24:44.543Z,101511.47
2019-06-08T15:27:38.756Z,101508.45
2019-06-08T15:30:31.134Z,101508.45
2019-06-08T15:33:24.523Z,101506.12
2019-06-08T15:36:20.191Z,101515.59
2019-06-08T15:39:11.134Z,101515.19
2019-06-08T15:42:03.000Z,101515.19
2019-06-08T15:44:54.968Z,101500.38
2019-06-08T15:47:48.556Z,101504.05
2019-06-08T15:50:40.554Z,101510.48
2019-06-08T15:53:34.070Z,101510.48
2019-06-08T15:56:38.217Z,101520.22
2019-06-08T15:59:20.084Z,101519.99
2019-06-08T16:02:12.131Z,101527.16
2019-06-08T16:05:05.555Z,101531.31
2019-06-08T16:07:57.423Z,101536.08
2019-06-08T16:10:49.215Z,101537.42
2019-06-08T16:13:41.010Z,101565.27
2019-06-08T16:16:33.482Z,101553.64
2019-06-08T16:19:25.593Z,101553.64
2019-06-08T16:22:17.611Z,101558.41
2019-06-08T16:25:09.485Z,101551.50
2019-06-08T16:28:01.267Z,101551.50
2019-06-08T16:30:53.003Z,101559.41
2019-06-08T16:33:45.298Z,101568.94
2019-06-08T16:36:37.387Z,101568.94
2019-06-08T16:39:29.175Z,101580.02
2019-06-08T16:42:21.348Z,101645.58
2019-06-08T16:45:13.728Z,101656.77
2019-06-08T16:48:05.782Z,101656.77
2019-06-08T16:50:57.829Z,101637.49
2019-06-08T16:53:49.714Z,101637.49
2019-06-08T16:56:41.813Z,101623.90
2019-06-08T16:59:34.423Z,101629.48
2019-06-08T17:02:26.476Z,101629.48
2019-06-08T17:05:18.448Z,101645.23
2019-06-08T17:08:10.728Z,101638.20
2019-06-08T17:11:03.010Z,101654.50
2019-06-08T17:13:55.474Z,101642.67
2019-06-08T17:16:47.580Z,101642.67
2019-06-08T17:19:40.348Z,101636.01
2019-06-08T17:22:32.478Z,101634.93
2019-06-08T17:25:24.563Z,101633.39
2019-06-08T17:28:16.646Z,101636.70
2019-06-08T17:31:08.905Z,101653.35
2019-06-08T17:34:01.237Z,101672.80
2019-06-08T17:36:53.195Z,101672.80
2019-06-08T17:39:45.206Z,101642.17
2019-06-08T17:42:37.615Z,101642.17
2019-06-08T17:45:29.961Z,101628.98
2019-06-08T17:48:22.069Z,101628.98
2019-06-08T17:51:14.213Z,101627.70
2019-06-08T17:54:06.510Z,101641.60
2019-06-08T17:56:58.399Z,101654.72
2019-06-08T17:59:50.159Z,101641.40
2019-06-08T18:02:43.783Z,101654.52
2019-06-08T18:05:36.718Z,101664.63
2019-06-08T18:08:28.928Z,101664.63
2019-06-08T18:11:20.955Z,101665.48
2019-06-08T18:14:13.179Z,101670.11
2019-06-08T18:17:05.069Z,101673.44
2019-06-08T18:19:57.951Z,101671.17
2019-06-08T18:22:50.193Z,101660.66
2019-06-08T18:25:43.404Z,101660.66
2019-06-08T18:28:36.472Z,101673.77
2019-06-08T18:31:28.721Z,101683.08
2019-06-08T18:34:20.888Z,101678.31
2019-06-08T18:37:13.097Z,101678.31
2019-06-08T18:40:07.259Z,101682.78
2019-06-08T18:42:59.271Z,101676.75
2019-06-08T18:45:51.318Z,101679.12
2019-06-08T18:48:44.867Z,101679.12
2019-06-08T18:51:38.237Z,101685.55
2019-06-08T18:54:31.042Z,101691.82
2019-06-08T18:57:23.164Z,101692.30
2019-06-08T19:00:15.279Z,101692.30
2019-06-08T19:03:07.822Z,101692.86
2019-06-08T19:05:59.648Z,101706.43
2019-06-08T19:08:51.750Z,101705.07
2019-06-08T19:11:43.947Z,101705.07
2019-06-08T19:14:37.772Z,101717.79
2019-06-08T19:17:29.368Z,101716.82
2019-06-08T19:20:21.493Z,101723.02
2019-06-08T19:23:13.631Z,101723.02
2019-06-08T19:26:07.690Z,101733.80
2019-06-08T19:28:59.002Z,101733.80
2019-06-08T19:31:51.441Z,101739.66
2019-06-08T19:34:43.924Z,101744.36
2019-06-08T19:37:37.701Z,101744.36
2019-06-08T19:40:29.589Z,101751.87
2019-06-08T19:43:21.368Z,101749.50
2019-06-08T19:46:13.414Z,101764.63
2019-06-08T19:49:07.853Z,101764.63
2019-06-08T19:51:59.439Z,101769.50
2019-06-08T19:54:53.835Z,101769.50
2019-06-08T19:57:48.502Z,101778.47
2019-06-08T20:00:41.065Z,101782.03
2019-06-08T20:03:34.104Z,101794.11
2019-06-08T20:06:27.825Z,101795.58
2019-06-08T20:09:19.774Z,101795.58
2019-06-08T20:12:11.583Z,101808.66
2019-06-08T20:15:05.590Z,101805.22
2019-06-08T20:17:58.251Z,101811.59
2019-06-08T20:20:52.714Z,101814.62
2019-06-08T20:23:44.787Z,101815.05
2019-06-08T20:26:37.481Z,101815.05
2019-06-08T20:29:29.767Z,101821.45
2019-06-08T20:32:21.873Z,101825.36
2019-06-08T20:35:14.496Z,101823.47
2019-06-08T20:38:08.267Z,101826.67
2019-06-08T20:41:00.641Z,101826.67
2019-06-08T20:43:53.644Z,101833.97
2019-06-08T20:46:46.723Z,101832.70
2019-06-08T20:49:39.813Z,101836.27
2019-06-08T20:52:31.563Z,101836.27
2019-06-08T20:55:23.283Z,101846.94
2019-06-08T20:58:17.593Z,101851.30
2019-06-08T21:01:08.531Z,101851.30
2019-06-08T21:04:00.532Z,101858.73
2019-06-08T21:06:52.831Z,101858.73
2019-06-08T21:09:45.419Z,101865.20
2019-06-08T21:12:38.150Z,101865.20
2019-06-08T21:15:30.078Z,101852.16
2019-06-08T21:18:22.103Z,101859.84
2019-06-08T21:21:13.756Z,101859.84
2019-06-08T21:24:07.689Z,101867.37
2019-06-08T21:27:00.586Z,101867.37
2019-06-08T21:29:59.934Z,101868.48
2019-06-08T21:32:50.322Z,101873.48
2019-06-08T21:35:40.294Z,101865.12
2019-06-08T21:38:32.282Z,101866.27
2019-06-08T21:41:24.396Z,101866.91
2019-06-08T21:44:16.391Z,101873.16
2019-06-08T21:47:08.911Z,101871.83
2019-06-08T21:50:04.865Z,101876.27
2019-06-08T21:52:59.061Z,101873.94
2019-06-08T21:55:50.699Z,101867.97
2019-06-08T21:58:42.798Z,101867.97
2019-06-08T22:01:37.418Z,101880.22
2019-06-08T22:04:28.690Z,101880.22
2019-06-08T22:07:20.856Z,101881.72
2019-06-08T22:10:12.880Z,101881.72
2019-06-08T22:13:04.717Z,101883.61
2019-06-08T22:15:59.845Z,101885.81
2019-06-08T22:18:51.428Z,101893.95
2019-06-08T22:21:47.907Z,101891.71
2019-06-08T22:24:38.446Z,101891.77
2019-06-08T22:27:30.572Z,101896.13
2019-06-08T22:30:35.162Z,101901.58
2019-06-08T22:33:17.565Z,101900.89
2019-06-08T22:36:09.668Z,101900.89
2019-06-08T22:39:02.595Z,101907.10
2019-06-08T22:41:56.083Z,101912.19
2019-06-08T22:44:48.887Z,101909.70
2019-06-08T22:47:40.906Z,101913.29
2019-06-08T22:50:32.697Z,101913.29
2019-06-08T22:53:24.687Z,101920.74
2019-06-08T22:56:18.345Z,101920.74
2019-06-08T22:59:10.380Z,101923.52
2019-06-08T23:02:04.199Z,101926.17
2019-06-08T23:04:56.259Z,101926.06
2019-06-08T23:07:48.769Z,101921.84
2019-06-08T23:10:41.329Z,101930.02
2019-06-08T23:13:33.611Z,101927.63
2019-06-08T23:16:27.233Z,101933.23
2019-06-08T23:19:19.107Z,101936.91
2019-06-08T23:22:10.981Z,101938.92
2019-06-08T23:25:04.475Z,101940.34
2019-06-08T23:27:56.275Z,101939.39
2019-06-08T23:31:03.381Z,101945.45
2019-06-08T23:33:42.138Z,101941.55
2019-06-08T23:36:50.785Z,101941.55
2019-06-08T23:39:28.670Z,101946.97
2019-06-08T23:42:20.598Z,101939.20
2019-06-08T23:45:13.221Z,101942.70
2019-06-08T23:48:05.008Z,101943.66
2019-06-08T23:50:57.912Z,101955.89
2019-06-08T23:53:50.744Z,101954.52
2019-06-08T23:56:42.706Z,101956.42
2019-06-08T23:59:37.033Z,101956.42
